createdAt,value
2023-04-15T00:01:19.484Z,9.90
2023-04-15T00:04:06.496Z,9.50
2023-04-15T00:06:53.763Z,9.90
2023-04-15T00:09:39.666Z,9.40
2023-04-15T00:12:26.237Z,9.55
2023-04-15T00:15:12.681Z,9.50
2023-04-15T00:17:59.871Z,9.18
2023-04-15T00:20:45.712Z,10.45
2023-04-15T00:23:31.600Z,9.95
2023-04-15T00:26:19.197Z,9.48
2023-04-15T00:29:07.029Z,9.27
2023-04-15T00:31:55.410Z,9.10
2023-04-15T00:34:41.826Z,9.98
2023-04-15T00:37:28.108Z,9.20
2023-04-15T00:40:14.309Z,8.95
2023-04-15T00:43:00.484Z,9.02
2023-04-15T00:45:47.218Z,9.45
2023-04-15T00:48:33.867Z,9.00
2023-04-15T00:51:20.120Z,8.95
2023-04-15T00:54:07.924Z,10.50
2023-04-15T00:56:56.814Z,9.25
2023-04-15T00:59:43.603Z,9.40
2023-04-15T01:02:30.174Z,10.40
2023-04-15T01:05:18.704Z,9.63
2023-04-15T01:08:04.554Z,9.00
2023-04-15T01:10:50.821Z,9.05
2023-04-15T01:13:36.837Z,9.63
2023-04-15T01:16:23.272Z,9.68
2023-04-15T01:19:10.909Z,10.80
2023-04-15T01:21:57.724Z,9.38
2023-04-15T01:24:55.590Z,10.23
2023-04-15T01:27:42.722Z,11.23
2023-04-15T01:30:29.306Z,10.48
2023-04-15T01:33:16.527Z,10.70
2023-04-15T01:36:23.363Z,9.70
2023-04-15T01:39:13.724Z,10.48
2023-04-15T01:41:59.460Z,10.43
2023-04-15T01:44:47.281Z,10.23
2023-04-15T01:47:34.618Z,11.10
2023-04-15T01:50:22.652Z,12.02
2023-04-15T01:53:09.870Z,10.40
2023-04-15T01:55:57.356Z,11.90
2023-04-15T01:58:44.796Z,11.18
2023-04-15T02:01:32.318Z,10.15
2023-04-15T02:04:19.911Z,12.98
2023-04-15T02:07:07.391Z,13.00
2023-04-15T02:09:55.539Z,11.35
2023-04-15T02:12:43.143Z,11.75
2023-04-15T02:15:30.616Z,11.63
2023-04-15T02:18:18.165Z,11.65
2023-04-15T02:21:07.189Z,12.30
2023-04-15T02:23:54.317Z,12.65
2023-04-15T02:26:41.662Z,11.70
2023-04-15T02:29:29.329Z,12.18
2023-04-15T02:32:17.244Z,12.38
2023-04-15T02:35:06.562Z,13.00
2023-04-15T02:37:53.482Z,13.52
2023-04-15T02:40:41.052Z,14.63
2023-04-15T02:43:28.272Z,16.02
2023-04-15T02:46:15.770Z,15.45
2023-04-15T02:49:03.562Z,14.88
2023-04-15T02:51:51.390Z,15.35
2023-04-15T02:54:39.438Z,15.98
2023-04-15T02:57:28.830Z,14.57
2023-04-15T03:00:18.457Z,14.80
2023-04-15T03:03:08.084Z,15.75
2023-04-15T03:05:55.212Z,16.63
2023-04-15T03:08:42.434Z,16.58
2023-04-15T03:11:29.899Z,16.13
2023-04-15T03:14:17.151Z,16.75
2023-04-15T03:17:06.909Z,16.38
2023-04-15T03:19:54.508Z,16.88
2023-04-15T03:22:42.368Z,16.15
2023-04-15T03:25:29.750Z,17.88
2023-04-15T03:28:16.714Z,16.83
2023-04-15T03:31:04.105Z,16.67
2023-04-15T03:33:51.424Z,17.02
2023-04-15T03:36:39.173Z,16.88
2023-04-15T03:39:26.314Z,16.55
2023-04-15T03:42:14.034Z,17.63
2023-04-15T03:45:01.163Z,17.20
2023-04-15T03:47:49.893Z,18.20
2023-04-15T03:51:07.096Z,18.60
2023-04-15T03:54:11.809Z,18.17
2023-04-15T03:57:13.366Z,18.15
2023-04-15T04:20:34.096Z,19.75
2023-04-15T04:23:21.495Z,21.83
2023-04-15T04:26:08.271Z,21.50
2023-04-15T04:28:55.779Z,19.50
2023-04-15T04:31:42.619Z,19.25
2023-04-15T04:34:29.764Z,19.08
2023-04-15T04:37:16.880Z,18.35
2023-04-15T04:40:04.782Z,19.02
2023-04-15T04:42:51.631Z,18.25
2023-04-15T04:45:38.821Z,21.13
2023-04-15T04:48:26.105Z,19.80
2023-04-15T04:51:13.328Z,20.90
2023-04-15T04:54:01.817Z,21.75
2023-04-15T04:56:50.969Z,23.60
2023-04-15T04:59:38.113Z,22.35
2023-04-15T05:02:27.154Z,20.65
2023-04-15T05:05:14.629Z,24.27
2023-04-15T05:08:02.103Z,20.88
2023-04-15T05:10:49.116Z,21.15
2023-04-15T05:13:38.710Z,20.55
2023-04-15T05:16:26.018Z,22.10
2023-04-15T05:19:13.486Z,21.50
2023-04-15T05:22:00.967Z,20.63
2023-04-15T05:24:48.235Z,22.17
2023-04-15T05:27:35.659Z,22.25
2023-04-15T05:30:22.782Z,22.35
2023-04-15T05:33:09.773Z,24.45
2023-04-15T05:35:57.249Z,21.27
2023-04-15T05:38:44.432Z,16.80
2023-04-15T05:41:31.669Z,18.38
2023-04-15T05:44:18.898Z,18.73
2023-04-15T05:47:07.909Z,19.50
2023-04-15T05:49:55.609Z,20.90
2023-04-15T05:52:42.736Z,17.52
2023-04-15T05:55:29.823Z,17.50
2023-04-15T05:58:17.334Z,18.25
2023-04-15T06:01:04.377Z,21.20
2023-04-15T06:03:51.719Z,18.15
2023-04-15T06:06:39.140Z,17.33
2023-04-15T06:09:26.422Z,17.08
2023-04-15T06:12:13.838Z,17.38
2023-04-15T06:15:01.121Z,16.88
2023-04-15T06:17:48.410Z,17.50
2023-04-15T06:20:36.813Z,17.73
2023-04-15T06:23:23.628Z,18.10
2023-04-15T06:26:11.348Z,16.17
2023-04-15T06:28:58.422Z,16.65
2023-04-15T06:31:47.883Z,17.20
2023-04-15T06:34:35.093Z,19.80
2023-04-15T06:37:22.507Z,16.20
2023-04-15T06:40:10.132Z,14.98
2023-04-15T06:42:57.289Z,14.57
2023-04-15T06:45:44.778Z,14.98
2023-04-15T06:48:32.464Z,15.93
2023-04-15T06:51:19.546Z,15.60
2023-04-15T06:54:06.738Z,15.13
2023-04-15T06:56:53.808Z,15.32
2023-04-15T06:59:41.198Z,16.33
2023-04-15T07:05:16.522Z,28.27
2023-04-15T07:08:03.710Z,16.52
2023-04-15T07:10:51.792Z,13.73
2023-04-15T07:13:38.823Z,12.32
2023-04-15T07:16:28.636Z,12.43
2023-04-15T07:19:17.462Z,12.48
2023-04-15T07:22:04.868Z,13.27
2023-04-15T07:24:51.726Z,13.80
2023-04-15T07:27:39.145Z,12.52
2023-04-15T07:30:26.249Z,12.32
2023-04-15T07:33:13.779Z,10.63
2023-04-15T07:36:00.523Z,10.20
2023-04-15T07:38:48.274Z,25.35
2023-04-15T07:41:34.974Z,17.02
2023-04-15T07:44:22.362Z,13.20
2023-04-15T07:47:09.590Z,15.32
2023-04-15T07:49:56.548Z,16.40
2023-04-15T07:52:44.025Z,13.38
2023-04-15T07:55:31.311Z,11.35
2023-04-15T07:58:18.241Z,11.18
2023-04-15T08:01:05.946Z,13.50
2023-04-15T08:03:53.327Z,13.13
2023-04-15T08:06:40.940Z,13.70
2023-04-15T08:09:27.858Z,12.07
2023-04-15T08:12:15.970Z,13.75
2023-04-15T08:15:04.737Z,21.60
2023-04-15T08:17:53.049Z,12.80
2023-04-15T08:20:40.624Z,26.73
2023-04-15T08:23:27.883Z,29.70
2023-04-15T08:26:15.187Z,79.65
2023-04-15T08:29:02.854Z,58.00
2023-04-15T08:31:49.833Z,75.43
2023-04-15T08:34:37.665Z,19.00
2023-04-15T08:37:24.547Z,13.90
2023-04-15T08:40:12.738Z,11.52
2023-04-15T08:43:01.111Z,12.77
2023-04-15T08:45:49.792Z,24.10
2023-04-15T08:48:39.525Z,16.00
2023-04-15T08:51:27.668Z,14.57
2023-04-15T08:54:14.565Z,17.15
2023-04-15T08:57:02.649Z,16.52
2023-04-15T08:59:49.801Z,17.83
2023-04-15T09:02:37.723Z,13.40
2023-04-15T09:05:24.921Z,11.63
2023-04-15T09:08:12.707Z,23.25
2023-04-15T09:10:59.793Z,21.95
2023-04-15T09:13:47.103Z,37.13
2023-04-15T09:16:58.860Z,44.50
2023-04-15T09:19:46.043Z,20.27
2023-04-15T09:22:33.354Z,27.30
2023-04-15T09:25:31.133Z,39.63
2023-04-15T09:28:25.720Z,12.18
2023-04-15T09:31:13.169Z,13.73
2023-04-15T09:34:00.605Z,13.07
2023-04-15T09:36:50.955Z,17.02
2023-04-15T09:39:53.957Z,14.02
2023-04-15T09:42:56.709Z,15.90
2023-04-15T09:45:53.646Z,13.85
2023-04-15T09:48:41.053Z,13.70
2023-04-15T09:51:38.030Z,13.85
2023-04-15T09:54:25.483Z,12.20
2023-04-15T09:57:13.208Z,12.63
2023-04-15T10:00:00.431Z,15.52
2023-04-15T10:02:48.349Z,11.77
2023-04-15T10:05:35.600Z,10.82
2023-04-15T10:08:25.257Z,11.85
2023-04-15T10:11:12.849Z,11.32
2023-04-15T10:14:00.731Z,12.52
2023-04-15T10:16:51.917Z,14.85
2023-04-15T10:19:39.128Z,27.55
2023-04-15T10:22:28.201Z,21.95
2023-04-15T10:25:15.756Z,18.10
2023-04-15T10:28:03.555Z,14.45
2023-04-15T10:30:50.547Z,11.40
2023-04-15T10:33:39.124Z,12.50
2023-04-15T10:36:26.335Z,10.15
2023-04-15T10:39:39.156Z,11.32
2023-04-15T10:42:34.538Z,14.27
2023-04-15T10:45:21.793Z,13.25
2023-04-15T10:48:09.213Z,17.80
2023-04-15T10:51:03.788Z,13.57
2023-04-15T10:53:50.860Z,14.57
2023-04-15T10:56:38.100Z,10.60
2023-04-15T10:59:25.386Z,9.30
2023-04-15T11:02:13.560Z,10.48
2023-04-15T11:05:01.962Z,11.27
2023-04-15T11:07:51.893Z,11.45
2023-04-15T11:10:38.611Z,13.57
2023-04-15T11:13:28.322Z,12.18
2023-04-15T11:16:15.617Z,14.13
2023-04-15T11:19:03.603Z,10.93
2023-04-15T11:21:50.349Z,32.85
2023-04-15T11:24:47.449Z,10.30
2023-04-15T11:27:34.519Z,16.88
2023-04-15T11:30:23.546Z,14.77
2023-04-15T11:33:14.774Z,9.63
2023-04-15T11:36:02.466Z,10.13
2023-04-15T11:38:49.470Z,7.28
2023-04-15T11:41:37.012Z,8.25
2023-04-15T11:44:24.114Z,8.15
2023-04-15T11:47:24.664Z,10.38
2023-04-15T11:50:22.558Z,10.05
2023-04-15T11:53:10.114Z,13.45
2023-04-15T11:55:55.726Z,11.40
2023-04-15T11:58:42.541Z,22.17
2023-04-15T12:01:32.912Z,9.18
2023-04-15T12:07:11.449Z,7.32
2023-04-15T12:09:57.917Z,7.13
2023-04-15T12:12:43.645Z,14.45
2023-04-15T12:15:29.881Z,6.22
2023-04-15T12:18:19.292Z,6.85
2023-04-15T12:21:14.811Z,9.17
2023-04-15T12:24:03.770Z,10.98
2023-04-15T12:26:52.771Z,11.48
2023-04-15T12:29:40.082Z,10.23
2023-04-15T12:32:26.266Z,11.00
2023-04-15T12:35:11.971Z,12.68
2023-04-15T12:37:57.725Z,17.73
2023-04-15T12:40:43.866Z,35.58
2023-04-15T12:43:29.755Z,17.05
2023-04-15T12:46:15.852Z,24.52
2023-04-15T12:49:02.196Z,19.27
2023-04-15T12:51:52.810Z,17.13
2023-04-15T12:54:39.292Z,12.75
2023-04-15T12:57:24.767Z,11.50
2023-04-15T13:00:11.368Z,11.30
2023-04-15T13:02:56.884Z,14.15
2023-04-15T13:05:43.213Z,14.52
2023-04-15T13:08:28.717Z,14.57
2023-04-15T13:11:14.877Z,29.77
2023-04-15T13:14:07.519Z,14.27
2023-04-15T13:16:54.206Z,18.58
2023-04-15T13:19:39.965Z,40.40
2023-04-15T13:22:26.352Z,23.63
2023-04-15T13:25:15.663Z,13.05
2023-04-15T13:28:01.689Z,15.05
2023-04-15T13:30:49.018Z,16.10
2023-04-15T13:33:35.409Z,14.18
2023-04-15T13:36:21.181Z,13.20
2023-04-15T13:39:07.019Z,11.05
2023-04-15T13:41:52.841Z,10.88
2023-04-15T13:44:39.156Z,10.75
2023-04-15T13:47:25.060Z,10.98
2023-04-15T13:50:11.331Z,13.05
2023-04-15T13:52:56.945Z,8.00
2023-04-15T13:55:43.407Z,9.60
2023-04-15T13:58:29.080Z,6.60
2023-04-15T14:01:15.681Z,10.18
2023-04-15T14:04:01.911Z,9.43
2023-04-15T14:06:48.285Z,10.73
2023-04-15T14:09:35.348Z,10.10
2023-04-15T14:12:21.664Z,11.93
2023-04-15T14:15:07.615Z,14.73
2023-04-15T14:17:54.068Z,16.17
2023-04-15T14:20:40.186Z,31.42
2023-04-15T14:23:26.350Z,21.13
2023-04-15T14:26:11.835Z,21.00
2023-04-15T14:28:58.230Z,22.23
2023-04-15T14:32:04.147Z,23.85
2023-04-15T14:34:50.780Z,19.15
2023-04-15T14:37:36.073Z,15.80
2023-04-15T14:40:22.064Z,20.02
2023-04-15T14:43:07.781Z,20.25
2023-04-15T14:45:53.889Z,18.73
2023-04-15T14:48:39.268Z,18.45
2023-04-15T14:51:25.258Z,18.65
2023-04-15T14:54:10.811Z,20.85
2023-04-15T14:56:56.385Z,33.92
2023-04-15T14:59:42.130Z,31.33
2023-04-15T15:02:38.271Z,29.98
2023-04-15T15:05:26.394Z,26.42
2023-04-15T15:08:12.830Z,18.77
2023-04-15T15:10:58.889Z,19.30
2023-04-15T15:13:45.277Z,18.13
2023-04-15T15:16:31.746Z,17.58
2023-04-15T15:19:18.065Z,20.02
2023-04-15T15:22:03.771Z,19.00
2023-04-15T15:24:50.090Z,17.63
2023-04-15T15:27:38.152Z,15.45
2023-04-15T15:30:24.210Z,14.70
2023-04-15T15:33:10.036Z,14.55
2023-04-15T15:35:55.791Z,10.70
2023-04-15T15:38:41.792Z,12.15
2023-04-15T15:41:27.652Z,13.18
2023-04-15T15:44:13.322Z,10.68
2023-04-15T15:46:59.430Z,10.63
2023-04-15T15:49:45.176Z,11.18
2023-04-15T15:52:30.867Z,10.80
2023-04-15T15:55:16.527Z,11.95
2023-04-15T15:58:02.145Z,13.90
2023-04-15T16:00:47.958Z,15.07
2023-04-15T16:03:34.517Z,17.48
2023-04-15T16:06:20.227Z,21.13
2023-04-15T16:09:06.252Z,11.68
2023-04-15T16:11:52.255Z,11.80
2023-04-15T16:14:38.038Z,9.07
2023-04-15T16:17:23.800Z,9.38
2023-04-15T16:20:10.513Z,8.32
2023-04-15T16:22:59.310Z,9.20
2023-04-15T16:25:45.700Z,9.55
2023-04-15T16:28:31.723Z,12.93
2023-04-15T16:31:18.005Z,14.95
2023-04-15T16:34:04.018Z,11.43
2023-04-15T16:36:49.997Z,11.85
2023-04-15T16:39:35.731Z,9.38
2023-04-15T16:42:22.097Z,9.07
2023-04-15T16:45:08.003Z,8.45
2023-04-15T16:47:54.332Z,7.45
2023-04-15T16:50:39.959Z,6.80
2023-04-15T16:53:26.248Z,7.00
2023-04-15T16:56:11.624Z,7.13
2023-04-15T16:58:57.510Z,7.65
2023-04-15T17:01:42.984Z,8.00
2023-04-15T17:04:30.604Z,9.65
2023-04-15T17:07:16.169Z,9.80
2023-04-15T17:10:02.375Z,10.82
2023-04-15T17:12:47.765Z,11.38
2023-04-15T17:15:33.404Z,11.70
2023-04-15T17:18:38.229Z,12.45
2023-04-15T17:21:32.666Z,12.95
2023-04-15T17:24:19.400Z,12.52
2023-04-15T17:27:11.422Z,12.80
2023-04-15T17:29:59.039Z,11.95
2023-04-15T17:33:57.624Z,12.43
2023-04-15T17:36:31.834Z,10.95
2023-04-15T17:39:37.790Z,12.90
2023-04-15T17:42:43.639Z,13.75
2023-04-15T17:45:49.231Z,14.15
2023-04-15T17:48:55.050Z,13.95
2023-04-15T17:52:01.300Z,15.20
2023-04-15T17:55:07.887Z,13.73
2023-04-15T17:58:13.887Z,15.05
2023-04-15T18:01:19.666Z,15.25
2023-04-15T18:04:26.917Z,16.83
2023-04-15T18:07:32.775Z,20.65
2023-04-15T18:10:39.164Z,19.45
2023-04-15T18:13:44.971Z,20.95
2023-04-15T18:16:51.929Z,21.00
2023-04-15T18:19:57.845Z,20.88
2023-04-15T18:22:44.179Z,20.17
2023-04-15T18:25:30.139Z,17.83
2023-04-15T18:28:16.305Z,16.58
2023-04-15T18:31:03.468Z,15.90
2023-04-15T18:33:49.303Z,13.63
2023-04-15T18:36:34.889Z,12.50
2023-04-15T18:39:20.645Z,12.88
2023-04-15T18:42:06.275Z,13.30
2023-04-15T18:44:52.946Z,13.27
2023-04-15T18:47:38.655Z,13.20
2023-04-15T18:50:24.432Z,12.73
2023-04-15T18:53:28.099Z,12.23
2023-04-15T18:56:06.368Z,10.73
2023-04-15T18:59:09.382Z,10.63
2023-04-15T19:02:00.224Z,11.48
2023-04-15T19:04:46.317Z,10.95
2023-04-15T19:07:32.307Z,9.77
2023-04-15T19:10:17.766Z,10.15
2023-04-15T19:13:04.512Z,10.20
2023-04-15T19:15:49.944Z,10.30
2023-04-15T19:18:35.817Z,20.17
2023-04-15T19:21:21.504Z,19.77
2023-04-15T19:24:07.344Z,14.43
2023-04-15T19:26:52.891Z,18.15
2023-04-15T19:29:38.593Z,17.63
2023-04-15T19:32:24.480Z,23.13
2023-04-15T19:35:11.653Z,21.58
2023-04-15T19:37:57.734Z,24.65
2023-04-15T19:40:43.820Z,27.48
2023-04-15T19:43:29.851Z,24.50
2023-04-15T19:46:15.718Z,23.58
2023-04-15T19:49:01.454Z,19.33
2023-04-15T19:51:50.645Z,19.05
2023-04-15T19:54:36.222Z,20.63
2023-04-15T19:57:21.897Z,18.40
2023-04-15T20:00:08.210Z,18.17
2023-04-15T20:02:56.001Z,20.35
2023-04-15T20:05:41.688Z,22.83
2023-04-15T20:08:27.309Z,23.90
2023-04-15T20:11:13.362Z,32.30
2023-04-15T20:14:01.824Z,24.40
2023-04-15T20:16:47.856Z,19.38
2023-04-15T20:19:33.971Z,15.98
2023-04-15T20:22:19.604Z,15.73
2023-04-15T20:25:06.099Z,14.27
2023-04-15T20:27:51.618Z,14.48
2023-04-15T20:30:39.423Z,16.70
2023-04-15T20:33:25.776Z,21.05
2023-04-15T20:36:11.774Z,33.35
2023-04-15T20:38:57.495Z,35.50
2023-04-15T20:41:43.791Z,29.63
2023-04-15T20:44:29.392Z,25.73
2023-04-15T20:47:15.531Z,25.17
2023-04-15T20:50:01.484Z,17.50
2023-04-15T20:52:47.310Z,14.65
2023-04-15T20:55:32.915Z,14.55
2023-04-15T20:58:19.180Z,15.30
2023-04-15T21:01:04.786Z,14.93
2023-04-15T21:03:51.058Z,16.25
2023-04-15T21:06:36.948Z,16.15
2023-04-15T21:09:23.095Z,15.82
2023-04-15T21:12:09.959Z,15.07
2023-04-15T21:14:56.256Z,16.92
2023-04-15T21:17:42.009Z,16.45
2023-04-15T21:20:28.283Z,16.75
2023-04-15T21:23:13.977Z,15.80
2023-04-15T21:26:00.234Z,17.25
2023-04-15T21:28:46.635Z,16.48
2023-04-15T21:31:32.667Z,16.80
2023-04-15T21:34:18.076Z,22.17
2023-04-15T21:37:03.893Z,27.20
2023-04-15T21:39:49.248Z,22.40
2023-04-15T21:42:35.017Z,21.05
2023-04-15T21:45:20.699Z,22.15
2023-04-15T21:48:08.375Z,24.50
2023-04-15T21:51:01.647Z,23.38
2023-04-15T21:53:47.817Z,23.02
2023-04-15T21:56:33.494Z,21.98
2023-04-15T21:59:19.376Z,23.48
2023-04-15T22:02:05.103Z,21.13
2023-04-15T22:04:51.327Z,22.33
2023-04-15T22:07:36.856Z,19.60
2023-04-15T22:10:22.752Z,21.48
2023-04-15T22:13:11.751Z,19.10
2023-04-15T22:15:57.484Z,20.85
2023-04-15T22:18:43.024Z,18.50
2023-04-15T22:21:28.690Z,18.75
2023-04-15T22:24:32.284Z,19.42
2023-04-15T22:27:20.701Z,17.60
2023-04-15T22:30:06.612Z,19.45
2023-04-15T22:32:52.448Z,21.63
2023-04-15T22:35:38.411Z,21.13
2023-04-15T22:38:24.306Z,20.45
2023-04-15T22:41:09.870Z,21.52
2023-04-15T22:43:55.982Z,20.27
2023-04-15T22:46:41.559Z,19.73
2023-04-15T22:49:27.919Z,21.38
2023-04-15T22:52:23.354Z,20.00
2023-04-15T22:55:15.887Z,21.73
2023-04-15T22:58:01.384Z,20.85
2023-04-15T23:00:46.992Z,20.67
2023-04-15T23:03:33.142Z,24.38
2023-04-15T23:06:39.154Z,18.58
2023-04-15T23:09:24.755Z,19.38
2023-04-15T23:12:10.901Z,20.00
2023-04-15T23:14:57.150Z,18.05
2023-04-15T23:17:43.457Z,19.50
2023-04-15T23:20:29.435Z,19.95
2023-04-15T23:23:15.683Z,20.48
2023-04-15T23:26:01.825Z,19.08
2023-04-15T23:28:47.970Z,19.50
2023-04-15T23:31:33.433Z,18.48
2023-04-15T23:34:19.594Z,17.52
2023-04-15T23:37:05.547Z,17.73
2023-04-15T23:39:51.911Z,16.65
2023-04-15T23:42:37.829Z,17.13
2023-04-15T23:45:23.754Z,16.85
2023-04-15T23:48:09.163Z,22.65
2023-04-15T23:50:55.000Z,24.85
2023-04-15T23:53:40.608Z,20.52
2023-04-15T23:56:26.538Z,18.77
2023-04-15T23:59:12.312Z,16.30
